AEZ3ED LIRF-LIEA
Flight info
| Callsign | AEZ3ED |
|---|---|
| Flight time | N/A |
| Altitude | 25000 |
| Route | ESINO DCT ABIDU DCT POZZO L5 MINKA |
| Aircraft | B738/M-SDE2E3FGHIRWXY/LB1 |
Departure
| Time | 2026-05-01 14:57 |
|---|---|
| Airport | Rome–Fiumicino Leonardo da Vinci International Airport (LIRF) |
Arrival
| Time | N/A |
|---|---|
| Airport | Alghero-Fertilia Airport (LIEA) |
| Time | Latitude | Longitude | Altitude | Speed | Heading |
|---|---|---|---|---|---|
| 2026-05-01 14:27 | 41.79941 | 12.26603 | 13 ft | 0 kts | 250° |
| 2026-05-01 14:41 | 41.79939 | 12.26595 | 13 ft | 3 kts | 250° |
| 2026-05-01 14:41 | 41.79931 | 12.26565 | 13 ft | 4 kts | 258° |
| 2026-05-01 14:41 | 41.79944 | 12.26535 | 15 ft | 4 kts | 321° |
| 2026-05-01 14:41 | 41.79971 | 12.26519 | 13 ft | 5 kts | 339° |
| 2026-05-01 14:42 | 41.80016 | 12.26496 | 13 ft | 9 kts | 340° |
| 2026-05-01 14:42 | 41.80082 | 12.26465 | 13 ft | 10 kts | 340° |
| 2026-05-01 14:42 | 41.80148 | 12.26433 | 14 ft | 10 kts | 340° |
| 2026-05-01 14:42 | 41.80206 | 12.26409 | 14 ft | 2 kts | 356° |
| 2026-05-01 14:43 | 41.80207 | 12.26409 | 14 ft | 0 kts | 356° |
| 2026-05-01 14:47 | 41.80232 | 12.26407 | 13 ft | 5 kts | 356° |
| 2026-05-01 14:47 | 41.80269 | 12.26388 | 13 ft | 7 kts | 313° |
| 2026-05-01 14:48 | 41.80320 | 12.26247 | 14 ft | 10 kts | 295° |
| 2026-05-01 14:48 | 41.80350 | 12.26154 | 13 ft | 12 kts | 284° |
| 2026-05-01 14:48 | 41.80292 | 12.25916 | 13 ft | 16 kts | 247° |
| 2026-05-01 14:49 | 41.80211 | 12.25607 | 14 ft | 18 kts | 250° |
| 2026-05-01 14:49 | 41.80125 | 12.25295 | 15 ft | 17 kts | 250° |
| 2026-05-01 14:50 | 41.80102 | 12.25043 | 15 ft | 16 kts | 281° |
| 2026-05-01 14:50 | 41.80065 | 12.24717 | 13 ft | 15 kts | 249° |
| 2026-05-01 14:51 | 41.80026 | 12.24575 | 14 ft | 17 kts | 249° |
| 2026-05-01 14:51 | 41.79925 | 12.24205 | 14 ft | 23 kts | 254° |
| 2026-05-01 14:52 | 41.79853 | 12.23813 | 15 ft | 19 kts | 249° |
| 2026-05-01 14:52 | 41.79821 | 12.23715 | 15 ft | 9 kts | 224° |
| 2026-05-01 14:52 | 41.79643 | 12.23766 | 13 ft | 21 kts | 163° |
| 2026-05-01 14:53 | 41.79488 | 12.23830 | 13 ft | 25 kts | 162° |
| 2026-05-01 14:53 | 41.79315 | 12.23903 | 15 ft | 27 kts | 162° |
| 2026-05-01 14:53 | 41.79130 | 12.23982 | 15 ft | 29 kts | 162° |
| 2026-05-01 14:53 | 41.78935 | 12.24062 | 16 ft | 29 kts | 162° |
| 2026-05-01 14:54 | 41.78738 | 12.24145 | 14 ft | 31 kts | 162° |
| 2026-05-01 14:54 | 41.78529 | 12.24233 | 16 ft | 31 kts | 162° |
| 2026-05-01 14:54 | 41.78388 | 12.24292 | 15 ft | 13 kts | 162° |
| 2026-05-01 14:54 | 41.78318 | 12.24262 | 15 ft | 13 kts | 254° |
| 2026-05-01 14:55 | 41.78302 | 12.24179 | 13 ft | 0 kts | 253° |
| 2026-05-01 14:55 | 41.78299 | 12.24170 | 14 ft | 3 kts | 253° |
| 2026-05-01 14:55 | 41.78287 | 12.24113 | 13 ft | 8 kts | 253° |
| 2026-05-01 14:56 | 41.78273 | 12.24045 | 15 ft | 7 kts | 262° |
| 2026-05-01 14:56 | 41.78297 | 12.23999 | 16 ft | 7 kts | 339° |
| 2026-05-01 14:56 | 41.78324 | 12.23988 | 15 ft | 0 kts | 343° |
| 2026-05-01 14:56 | 41.78326 | 12.23987 | 15 ft | 2 kts | 343° |
| 2026-05-01 14:57 | 41.78444 | 12.23940 | 14 ft | 53 kts | 343° |
| 2026-05-01 14:57 | 41.80100 | 12.23230 | 399 ft | 166 kts | 345° |
| 2026-05-01 14:57 | 41.81215 | 12.22675 | 1342 ft | 176 kts | 341° |
| 2026-05-01 14:58 | 41.82346 | 12.21869 | 2087 ft | 192 kts | 333° |
| 2026-05-01 14:58 | 41.83367 | 12.20582 | 2583 ft | 216 kts | 301° |
| 2026-05-01 14:58 | 41.83569 | 12.18550 | 3375 ft | 228 kts | 260° |
| 2026-05-01 14:58 | 41.82839 | 12.16654 | 3997 ft | 236 kts | 223° |
| 2026-05-01 14:59 | 41.81395 | 12.15674 | 4702 ft | 234 kts | 189° |
| 2026-05-01 14:59 | 41.79793 | 12.15282 | 5386 ft | 236 kts | 188° |
| 2026-05-01 14:59 | 41.78170 | 12.14899 | 6094 ft | 237 kts | 188° |
| 2026-05-01 14:59 | 41.76535 | 12.14519 | 6740 ft | 240 kts | 188° |
| 2026-05-01 15:00 | 41.73157 | 12.13732 | 7892 ft | 251 kts | 188° |
| 2026-05-01 15:00 | 41.71429 | 12.13327 | 8504 ft | 254 kts | 187° |
| 2026-05-01 15:00 | 41.69725 | 12.12668 | 9015 ft | 267 kts | 210° |
| 2026-05-01 15:01 | 41.68183 | 12.11100 | 9279 ft | 292 kts | 220° |
| 2026-05-01 15:01 | 41.66567 | 12.09286 | 9727 ft | 308 kts | 220° |
| 2026-05-01 15:01 | 41.64887 | 12.07435 | 10368 ft | 318 kts | 219° |
| 2026-05-01 15:01 | 41.63103 | 12.05494 | 10576 ft | 343 kts | 219° |
| 2026-05-01 15:02 | 41.61180 | 12.03421 | 10752 ft | 366 kts | 219° |
| 2026-05-01 15:02 | 41.60503 | 12.02701 | 10872 ft | 372 kts | 219° |
| 2026-05-01 15:02 | 41.57059 | 11.99069 | 11864 ft | 385 kts | 219° |
| 2026-05-01 15:02 | 41.54953 | 11.96847 | 12651 ft | 387 kts | 219° |
| 2026-05-01 15:03 | 41.52829 | 11.94604 | 13374 ft | 392 kts | 219° |
| 2026-05-01 15:03 | 41.50672 | 11.92326 | 14042 ft | 397 kts | 219° |
| 2026-05-01 15:03 | 41.48487 | 11.90019 | 14616 ft | 404 kts | 219° |
| 2026-05-01 15:03 | 41.46297 | 11.87709 | 15178 ft | 410 kts | 219° |
| 2026-05-01 15:04 | 41.44038 | 11.85327 | 15743 ft | 416 kts | 219° |
| 2026-05-01 15:04 | 41.41754 | 11.82924 | 16309 ft | 422 kts | 220° |
| 2026-05-01 15:04 | 41.39479 | 11.80404 | 16865 ft | 427 kts | 228° |
| 2026-05-01 15:04 | 41.37788 | 11.77192 | 17404 ft | 422 kts | 250° |
| 2026-05-01 15:05 | 41.36739 | 11.73586 | 18197 ft | 418 kts | 256° |
| 2026-05-01 15:05 | 41.35765 | 11.69904 | 18736 ft | 423 kts | 257° |
| 2026-05-01 15:05 | 41.34794 | 11.66187 | 19146 ft | 429 kts | 257° |
| 2026-05-01 15:05 | 41.33807 | 11.62430 | 19648 ft | 433 kts | 257° |
| 2026-05-01 15:06 | 41.32805 | 11.58667 | 20229 ft | 434 kts | 257° |
| 2026-05-01 15:06 | 41.31763 | 11.54802 | 20821 ft | 436 kts | 257° |
| 2026-05-01 15:06 | 41.30743 | 11.51047 | 21350 ft | 439 kts | 257° |
| 2026-05-01 15:06 | 41.29698 | 11.47218 | 21857 ft | 442 kts | 257° |
| 2026-05-01 15:07 | 41.28642 | 11.43363 | 22361 ft | 445 kts | 257° |
| 2026-05-01 15:07 | 41.27577 | 11.39485 | 22861 ft | 448 kts | 257° |
| 2026-05-01 15:07 | 41.26518 | 11.35634 | 23351 ft | 451 kts | 257° |
| 2026-05-01 15:07 | 41.24846 | 11.29567 | 23998 ft | 454 kts | 256° |
| 2026-05-01 15:08 | 41.20505 | 11.13887 | 25510 ft | 458 kts | 256° |
| 2026-05-01 15:08 | 41.15999 | 10.97660 | 25311 ft | 470 kts | 256° |
| 2026-05-01 15:08 | 41.11522 | 10.81776 | 25159 ft | 446 kts | 256° |
| 2026-05-01 15:08 | 41.07264 | 10.66649 | 25203 ft | 435 kts | 256° |
| 2026-05-01 15:09 | 41.03004 | 10.51574 | 25245 ft | 440 kts | 256° |
| 2026-05-01 15:09 | 40.98780 | 10.36240 | 25244 ft | 441 kts | 262° |
| 2026-05-01 15:09 | 40.98296 | 10.20564 | 25235 ft | 421 kts | 275° |
| 2026-05-01 15:09 | 40.97763 | 10.05122 | 25237 ft | 420 kts | 273° |
| 2026-05-01 15:10 | 40.97319 | 9.93946 | 25275 ft | 426 kts | 273° |
| 2026-05-01 15:10 | 40.97016 | 9.86101 | 25224 ft | 424 kts | 273° |
| 2026-05-01 15:10 | 40.96863 | 9.82272 | 24923 ft | 409 kts | 272° |
| 2026-05-01 15:11 | 40.96716 | 9.78618 | 24678 ft | 396 kts | 272° |
| 2026-05-01 15:11 | 40.96433 | 9.71392 | 24232 ft | 394 kts | 273° |
| 2026-05-01 15:11 | 40.96293 | 9.67800 | 23870 ft | 386 kts | 273° |
| 2026-05-01 15:12 | 40.96151 | 9.64291 | 23422 ft | 378 kts | 273° |
| 2026-05-01 15:12 | 40.95874 | 9.57484 | 22608 ft | 363 kts | 273° |
| 2026-05-01 15:12 | 40.95741 | 9.54209 | 22214 ft | 359 kts | 273° |
| 2026-05-01 15:13 | 40.95328 | 9.43906 | 20857 ft | 385 kts | 272° |
| 2026-05-01 15:14 | 40.95024 | 9.36878 | 19993 ft | 381 kts | 272° |
| 2026-05-01 15:14 | 40.94856 | 9.32985 | 19496 ft | 380 kts | 272° |
| 2026-05-01 15:14 | 40.92450 | 9.19398 | 17798 ft | 386 kts | 251° |
| 2026-05-01 15:15 | 40.88370 | 9.06415 | 16082 ft | 377 kts | 251° |
| 2026-05-01 15:15 | 40.84464 | 8.93780 | 14520 ft | 366 kts | 251° |
| 2026-05-01 15:16 | 40.80656 | 8.81565 | 12779 ft | 361 kts | 250° |
| 2026-05-01 15:16 | 40.78437 | 8.74617 | 11657 ft | 348 kts | 250° |
| 2026-05-01 15:17 | 40.76610 | 8.68909 | 10984 ft | 326 kts | 250° |
| 2026-05-01 15:18 | 40.74057 | 8.60940 | 10499 ft | 311 kts | 250° |
| 2026-05-01 15:18 | 40.73218 | 8.58323 | 10383 ft | 309 kts | 250° |
| 2026-05-01 15:19 | 40.70970 | 8.51342 | 9699 ft | 316 kts | 249° |
| 2026-05-01 15:19 | 40.69276 | 8.46083 | 9231 ft | 308 kts | 249° |
| 2026-05-01 15:19 | 40.68435 | 8.43479 | 8853 ft | 309 kts | 249° |
| 2026-05-01 15:20 | 40.66798 | 8.38357 | 8355 ft | 294 kts | 250° |
| 2026-05-01 15:20 | 40.66000 | 8.35906 | 8253 ft | 285 kts | 249° |
| 2026-05-01 15:20 | 40.65217 | 8.33529 | 8084 ft | 279 kts | 248° |
| 2026-05-01 15:21 | 40.64269 | 8.31374 | 8044 ft | 270 kts | 228° |
| 2026-05-01 15:21 | 40.62737 | 8.30052 | 7967 ft | 260 kts | 196° |
| 2026-05-01 15:21 | 40.60998 | 8.29873 | 7959 ft | 248 kts | 167° |
| 2026-05-01 15:21 | 40.59339 | 8.30470 | 7704 ft | 248 kts | 162° |
| 2026-05-01 15:22 | 40.55972 | 8.31561 | 7111 ft | 247 kts | 164° |
| 2026-05-01 15:22 | 40.54306 | 8.32082 | 6857 ft | 245 kts | 164° |
| 2026-05-01 15:22 | 40.52667 | 8.32603 | 6553 ft | 245 kts | 164° |
| 2026-05-01 15:23 | 40.50978 | 8.33095 | 6009 ft | 252 kts | 170° |
| 2026-05-01 15:23 | 40.49252 | 8.32792 | 5712 ft | 251 kts | 203° |
| 2026-05-01 15:23 | 40.47744 | 8.31800 | 5668 ft | 235 kts | 206° |
| 2026-05-01 15:23 | 40.46274 | 8.30862 | 5273 ft | 237 kts | 202° |
| 2026-05-01 15:24 | 40.44772 | 8.29986 | 5073 ft | 237 kts | 201° |
| 2026-05-01 15:24 | 40.43278 | 8.29038 | 4948 ft | 241 kts | 214° |
| 2026-05-01 15:24 | 40.42229 | 8.27357 | 4847 ft | 241 kts | 249° |
| 2026-05-01 15:24 | 40.42035 | 8.25251 | 4526 ft | 237 kts | 285° |
| 2026-05-01 15:25 | 40.42615 | 8.23251 | 4252 ft | 233 kts | 299° |
| 2026-05-01 15:25 | 40.43321 | 8.21354 | 3934 ft | 232 kts | 301° |
| 2026-05-01 15:25 | 40.44305 | 8.19822 | 3702 ft | 211 kts | 333° |
| 2026-05-01 15:25 | 40.45617 | 8.19228 | 3436 ft | 193 kts | 1° |
| 2026-05-01 15:26 | 40.46901 | 8.19329 | 3208 ft | 179 kts | 17° |
| 2026-05-01 15:26 | 40.48016 | 8.19908 | 2941 ft | 172 kts | 29° |
| 2026-05-01 15:26 | 40.49116 | 8.20593 | 2774 ft | 176 kts | 28° |
| 2026-05-01 15:26 | 40.50236 | 8.21279 | 2610 ft | 179 kts | 28° |
| 2026-05-01 15:27 | 40.51383 | 8.21959 | 2562 ft | 181 kts | 28° |
| 2026-05-01 15:27 | 40.52526 | 8.22637 | 2335 ft | 178 kts | 28° |
| 2026-05-01 15:27 | 40.53639 | 8.23314 | 2055 ft | 178 kts | 27° |
| 2026-05-01 15:28 | 40.55890 | 8.24643 | 1382 ft | 172 kts | 27° |
| 2026-05-01 15:28 | 40.56937 | 8.25290 | 1124 ft | 160 kts | 27° |
| 2026-05-01 15:28 | 40.57923 | 8.25881 | 894 ft | 152 kts | 27° |
| 2026-05-01 15:29 | 40.59846 | 8.27027 | 560 ft | 151 kts | 28° |
| 2026-05-01 15:29 | 40.60789 | 8.27600 | 305 ft | 148 kts | 27° |
| 2026-05-01 15:29 | 40.62548 | 8.28673 | 89 ft | 125 kts | 30° |
| 2026-05-01 15:30 | 40.63742 | 8.29396 | 95 ft | 60 kts | 24° |